Time;durP1;ratioP1;P1;durP2;ratioP2;P2;SDS_P1;SDS_P2;PMS_P1;PMS_P2;Temp;Humidity;BMP_temperature;BMP_pressure;BME280_temperature;BME280_humidity;BME280_pressure;Samples;Min_cycle;Max_cycle;Signal;HPM_P1;HPM_P2
2021/04/29 00:00:04;;;;;;;8.93;4.70;;;;;;;11.60;95.38;94729.28;1040468;28;20064;-53
2021/04/29 00:00:35;;;;;;;8.23;4.90;;;;;;;11.63;95.45;94723.53;1040575;28;20067;-54
2021/04/29 00:01:05;;;;;;;7.77;4.43;;;;;;;11.63;95.60;94730.63;1040689;28;20072;-54
2021/04/29 00:01:36;;;;;;;6.10;4.30;;;;;;;11.65;95.36;94734.63;1040441;28;20009;-56
2021/04/29 00:02:06;;;;;;;8.17;4.83;;;;;;;11.64;94.87;94725.13;1040662;28;20456;-54
2021/04/29 00:02:37;;;;;;;7.27;4.20;;;;;;;11.59;95.40;94727.66;1040193;28;20379;-54
2021/04/29 00:03:07;;;;;;;7.03;4.23;;;;;;;11.60;95.19;94736.38;1040235;28;20017;-54
2021/04/29 00:03:38;;;;;;;8.23;4.70;;;;;;;11.59;95.42;94729.53;1040325;28;20026;-55
2021/04/29 00:04:09;;;;;;;6.80;4.60;;;;;;;11.59;95.80;94735.59;1040076;28;20029;-53
2021/04/29 00:04:39;;;;;;;6.90;4.32;;;;;;;11.55;95.79;94730.00;1040328;28;20023;-57
2021/04/29 00:05:12;;;;;;;6.70;4.40;;;;;;;11.55;95.52;94734.44;1040664;28;20036;-53
2021/04/29 00:05:42;;;;;;;7.63;4.32;;;;;;;11.55;95.49;94732.63;1041071;28;20021;-53
2021/04/29 00:06:13;;;;;;;8.43;4.63;;;;;;;11.56;95.74;94731.56;1041398;28;20109;-55
2021/04/29 00:06:43;;;;;;;6.07;4.10;;;;;;;11.56;95.31;94733.41;1041346;28;20030;-53
2021/04/29 00:07:14;;;;;;;5.53;4.10;;;;;;;11.53;95.81;94729.41;1041402;28;20149;-55
2021/04/29 00:07:44;;;;;;;7.70;4.37;;;;;;;11.58;95.55;94733.19;1041400;28;20020;-56
2021/04/29 00:08:15;;;;;;;7.87;4.50;;;;;;;11.57;96.12;94732.38;1041392;28;20080;-55
2021/04/29 00:08:45;;;;;;;7.80;4.40;;;;;;;11.55;95.82;94730.00;1041295;28;20056;-53
2021/04/29 00:09:16;;;;;;;6.20;4.20;;;;;;;11.61;95.20;94730.88;1041072;28;20056;-56
2021/04/29 00:09:46;;;;;;;8.47;4.57;;;;;;;11.63;95.01;94730.63;1041245;28;20063;-53
2021/04/29 00:10:18;;;;;;;6.97;4.53;;;;;;;11.65;95.19;94728.56;1041178;28;20024;-55
2021/04/29 00:10:48;;;;;;;7.35;5.22;;;;;;;11.64;94.96;94725.13;1041269;28;20018;-55
2021/04/29 00:11:19;;;;;;;6.50;4.50;;;;;;;11.70;95.07;94729.44;1041311;28;20364;-55
2021/04/29 00:11:50;;;;;;;8.50;4.20;;;;;;;11.70;95.47;94726.81;1041161;28;20100;-55
2021/04/29 00:12:20;;;;;;;8.90;5.13;;;;;;;11.68;95.31;94725.47;1041315;28;20471;-54
2021/04/29 00:12:51;;;;;;;12.00;5.10;;;;;;;11.67;95.52;94724.66;1041486;28;20052;-56
2021/04/29 00:13:21;;;;;;;7.40;4.40;;;;;;;11.68;95.10;94720.97;1041135;28;20029;-55
2021/04/29 00:13:52;;;;;;;7.00;4.90;;;;;;;11.71;94.98;94733.69;1041061;28;20025;-55
2021/04/29 00:14:22;;;;;;;6.33;4.07;;;;;;;11.69;95.06;94721.78;1041077;28;20020;-56
2021/04/29 00:14:53;;;;;;;6.90;4.67;;;;;;;11.68;95.92;94726.25;1041314;28;20036;-53
2021/04/29 00:15:23;;;;;;;8.70;4.43;;;;;;;11.70;95.37;94721.53;1041501;28;20037;-55
2021/04/29 00:15:54;;;;;;;8.50;4.27;;;;;;;11.72;94.67;94713.38;1041647;28;20067;-52
2021/04/29 00:16:24;;;;;;;7.60;5.07;;;;;;;11.71;94.61;94722.34;1041242;28;20029;-56
2021/04/29 00:16:55;;;;;;;8.17;5.07;;;;;;;11.74;94.35;94714.75;1036755;28;20105;-54
2021/04/29 00:17:25;;;;;;;10.07;5.20;;;;;;;11.74;94.44;94722.69;1036819;28;20014;-54
2021/04/29 00:17:56;;;;;;;9.47;4.60;;;;;;;11.68;95.20;94725.47;1036885;28;20112;-53
2021/04/29 00:18:26;;;;;;;9.63;4.40;;;;;;;11.69;95.45;94719.97;1040965;28;20014;-53
2021/04/29 00:18:57;;;;;;;8.23;5.07;;;;;;;11.69;94.90;94721.78;1041530;28;20037;-55
2021/04/29 00:19:27;;;;;;;6.30;4.73;;;;;;;11.67;95.35;94721.22;1040998;28;20029;-53
2021/04/29 00:19:58;;;;;;;8.27;5.00;;;;;;;11.69;95.64;94719.97;1041107;28;20033;-52
2021/04/29 00:20:28;;;;;;;9.00;5.10;;;;;;;11.67;95.31;94719.38;1041040;28;20099;-52
2021/04/29 00:20:59;;;;;;;7.93;5.00;;;;;;;11.72;95.12;94716.03;1041122;28;20017;-52
2021/04/29 00:21:29;;;;;;;11.80;5.97;;;;;;;11.74;95.45;94720.03;1041146;28;20021;-51
2021/04/29 00:22:00;;;;;;;7.73;5.20;;;;;;;11.76;95.04;94713.75;1040768;28;20018;-52
2021/04/29 00:22:30;;;;;;;6.53;4.90;;;;;;;11.67;95.51;94715.94;1040876;28;20475;-54
2021/04/29 00:23:01;;;;;;;8.70;5.07;;;;;;;11.68;95.62;94713.06;1041265;28;20144;-54
2021/04/29 00:23:31;;;;;;;11.80;5.30;;;;;;;11.72;95.42;94716.84;1040710;28;20021;-53
2021/04/29 00:24:02;;;;;;;7.67;5.10;;;;;;;11.71;96.06;94723.16;1041225;28;20472;-54
2021/04/29 00:24:33;;;;;;;9.32;5.10;;;;;;;11.68;95.91;94718.34;1044891;28;20025;-52
2021/04/29 00:25:05;;;;;;;7.27;4.67;;;;;;;11.68;95.67;94717.56;1044849;28;20033;-57
2021/04/29 00:25:35;;;;;;;10.15;4.50;;;;;;;11.72;95.49;94716.84;1045029;28;20021;-51
2021/04/29 00:26:06;;;;;;;12.57;5.43;;;;;;;11.73;95.76;94710.50;1045109;28;20545;-53
2021/04/29 00:26:36;;;;;;;8.20;5.37;;;;;;;11.74;95.57;94714.75;1041018;28;20387;-53
2021/04/29 00:27:07;;;;;;;7.57;5.00;;;;;;;11.76;95.07;94714.53;1036871;28;20021;-52
2021/04/29 00:27:37;;;;;;;8.53;5.10;;;;;;;11.77;95.23;94715.31;1032370;28;20065;-55
2021/04/29 00:28:08;;;;;;;7.53;4.53;;;;;;;11.79;95.01;94702.72;1028588;28;20029;-53
2021/04/29 00:28:38;;;;;;;7.50;5.10;;;;;;;11.79;94.79;94708.78;1032912;28;20435;-53
2021/04/29 00:29:09;;;;;;;7.20;5.20;;;;;;;11.80;95.28;94709.59;1037066;28;20132;-53
2021/04/29 00:29:39;;;;;;;7.53;4.83;;;;;;;11.79;94.54;94708.78;1040800;28;20412;-53
2021/04/29 00:30:10;;;;;;;9.37;4.93;;;;;;;11.76;96.27;94708.47;1040986;28;20021;-54
2021/04/29 00:30:41;;;;;;;8.32;5.35;;;;;;;11.69;95.71;94706.78;1041175;28;20066;-52
2021/04/29 00:31:11;;;;;;;11.27;5.27;;;;;;;11.68;96.05;94713.06;1041068;28;20443;-54
2021/04/29 00:31:41;;;;;;;9.73;5.20;;;;;;;11.64;96.49;94714.56;1041078;28;20013;-56
2021/04/29 00:32:12;;;;;;;6.77;4.97;;;;;;;11.67;96.01;94710.66;1036575;28;20022;-55
2021/04/29 00:32:42;;;;;;;8.97;4.60;;;;;;;11.65;95.97;94715.41;1036830;28;20026;-52
2021/04/29 00:33:13;;;;;;;7.50;4.97;;;;;;;11.65;96.25;94713.53;1036914;28;20013;-52
2021/04/29 00:33:43;;;;;;;7.37;4.97;;;;;;;11.72;96.14;94711.56;1036869;28;20018;-52
2021/04/29 00:34:14;;;;;;;8.20;4.80;;;;;;;11.74;95.29;94708.69;1040877;28;20017;-54
2021/04/29 00:34:44;;;;;;;7.47;5.00;;;;;;;11.71;96.67;94706.53;1040947;28;20030;-53
2021/04/29 00:35:15;;;;;;;10.03;5.07;;;;;;;11.63;96.99;94712.16;1041203;28;20112;-52
2021/04/29 00:35:45;;;;;;;8.97;4.90;;;;;;;11.65;96.76;94713.53;1037135;28;20088;-52
2021/04/29 00:36:16;;;;;;;8.00;5.50;;;;;;;11.65;96.38;94710.91;1037260;28;20064;-53
2021/04/29 00:36:46;;;;;;;8.80;5.23;;;;;;;11.58;97.52;94707.59;1037148;28;20093;-53
2021/04/29 00:37:17;;;;;;;8.67;5.07;;;;;;;11.60;98.17;94710.81;1037277;28;20026;-52
2021/04/29 00:37:47;;;;;;;7.43;5.10;;;;;;;11.65;97.47;94702.22;1041315;28;20160;-52
2021/04/29 00:38:18;;;;;;;8.20;4.83;;;;;;;11.69;97.00;94709.41;1041201;28;20379;-56
2021/04/29 00:38:48;;;;;;;6.10;4.70;;;;;;;11.70;96.82;94721.53;1045668;28;20521;-51
2021/04/29 00:39:19;;;;;;;8.03;5.00;;;;;;;11.69;97.00;94714.69;1045316;28;20020;-53
2021/04/29 00:39:49;;;;;;;9.60;5.07;;;;;;;11.70;96.85;94712.84;1041500;28;20467;-54
2021/04/29 00:40:20;;;;;;;10.00;5.53;;;;;;;11.68;97.40;94715.72;1041610;28;20017;-51
2021/04/29 00:40:50;;;;;;;8.57;5.40;;;;;;;11.65;97.37;94716.19;1041630;28;20020;-53
2021/04/29 00:41:21;;;;;;;8.23;5.33;;;;;;;11.63;98.48;94717.44;1041420;28;20013;-52
2021/04/29 00:41:51;;;;;;;7.37;4.77;;;;;;;11.66;97.92;94715.16;1042052;28;20460;-52
2021/04/29 00:42:22;;;;;;;7.80;4.93;;;;;;;11.69;97.35;94709.41;1041427;28;20467;-53
2021/04/29 00:42:52;;;;;;;7.83;5.27;;;;;;;11.68;97.57;94715.72;1041925;28;20444;-54
2021/04/29 00:43:23;;;;;;;7.47;5.20;;;;;;;11.69;97.29;94719.97;1041506;28;20045;-53
2021/04/29 00:43:53;;;;;;;6.77;4.60;;;;;;;11.70;97.34;94716.25;1040954;28;20021;-56
2021/04/29 00:44:24;;;;;;;8.60;4.70;;;;;;;11.74;96.59;94714.75;1036439;28;20022;-52
2021/04/29 00:44:54;;;;;;;7.97;5.33;;;;;;;11.74;97.01;94708.69;1037194;28;20026;-53
2021/04/29 00:45:25;;;;;;;8.03;5.10;;;;;;;11.66;97.30;94717.78;1037489;28;20496;-52
2021/04/29 00:45:56;;;;;;;6.33;4.50;;;;;;;11.68;97.50;94722.81;1040787;28;20484;-53
2021/04/29 00:46:28;;;;;;;7.07;4.68;;;;;;;11.70;96.84;94726.81;1040654;28;20026;-52
2021/04/29 00:46:58;;;;;;;7.22;4.90;;;;;;;11.71;96.64;94711.81;1041253;28;20079;-54
2021/04/29 00:47:29;;;;;;;7.20;4.50;;;;;;;11.74;96.53;94717.41;1037197;28;20089;-54
2021/04/29 00:47:59;;;;;;;7.57;4.50;;;;;;;11.76;95.97;94722.44;1037107;28;20018;-53
2021/04/29 00:48:29;;;;;;;8.27;4.97;;;;;;;11.75;96.46;94720.81;1041267;28;20017;-53
2021/04/29 00:49:00;;;;;;;7.13;5.23;;;;;;;11.69;96.64;94724.41;1041422;28;20024;-53
2021/04/29 00:49:30;;;;;;;6.73;4.53;;;;;;;11.72;96.50;94718.66;1041675;28;20018;-53
2021/04/29 00:50:02;;;;;;;8.23;5.30;;;;;;;11.68;96.54;94723.63;1041227;28;20075;-55
2021/04/29 00:50:33;;;;;;;8.30;4.90;;;;;;;11.68;96.40;94720.19;1037228;28;20040;-53
2021/04/29 00:51:03;;;;;;;7.30;4.97;;;;;;;11.69;96.82;94722.59;1036751;28;20084;-54
2021/04/29 00:51:34;;;;;;;7.77;4.20;;;;;;;11.72;96.34;94719.47;1037073;28;20029;-53
2021/04/29 00:52:05;;;;;;;6.93;4.47;;;;;;;11.69;96.82;94713.88;1040625;28;20021;-53
2021/04/29 00:52:35;;;;;;;7.80;4.67;;;;;;;11.66;96.61;94720.44;1041517;28;20021;-55
2021/04/29 00:53:06;;;;;;;11.33;4.90;;;;;;;11.69;96.87;94719.13;1041243;28;20053;-54
2021/04/29 00:53:42;;;;;;;6.93;4.67;;;;;;;11.67;96.16;94719.38;1041642;28;20033;-53
2021/04/29 00:54:13;;;;;;;6.80;4.40;;;;;;;11.65;96.69;94724.09;1040883;28;20049;-55
2021/04/29 00:54:43;;;;;;;7.10;4.80;;;;;;;11.68;96.83;94723.63;1040834;28;20021;-52
2021/04/29 00:55:14;;;;;;;7.83;4.83;;;;;;;11.70;96.38;94720.75;1041591;28;20017;-53
2021/04/29 00:55:45;;;;;;;9.10;4.40;;;;;;;11.65;96.93;94721.47;1041672;28;20079;-52
2021/04/29 00:56:15;;;;;;;6.87;4.67;;;;;;;11.68;96.65;94728.09;1041659;28;20490;-53
2021/04/29 00:56:46;;;;;;;6.60;4.57;;;;;;;11.69;96.66;94727.88;1041355;28;20017;-54
2021/04/29 00:57:16;;;;;;;6.63;4.90;;;;;;;11.65;96.64;94729.38;1040494;28;20361;-51
2021/04/29 00:57:47;;;;;;;8.07;4.40;;;;;;;11.68;96.03;94734.16;1036589;28;20020;-55
2021/04/29 00:58:17;;;;;;;6.83;4.47;;;;;;;11.67;96.04;94729.13;1036911;28;20100;-53
2021/04/29 00:58:49;;;;;;;8.47;4.23;;;;;;;11.66;95.91;94720.44;1036987;28;20021;-52
2021/04/29 00:59:19;;;;;;;7.65;4.43;;;;;;;11.65;96.52;94732.00;1036930;28;20100;-55
2021/04/29 00:59:51;;;;;;;6.33;4.57;;;;;;;11.65;96.08;94726.72;1041168;28;20064;-54
2021/04/29 01:00:21;;;;;;;8.73;4.13;;;;;;;11.66;96.12;94728.34;1040758;28;20549;-53
2021/04/29 01:00:52;;;;;;;6.77;4.47;;;;;;;11.66;96.19;94724.88;1041134;28;20021;-55
2021/04/29 01:01:22;;;;;;;6.93;4.50;;;;;;;11.62;96.01;94727.19;1041202;28;20016;-57
2021/04/29 01:01:59;;;;;;;6.63;4.50;;;;;;;11.63;95.97;94731.44;1036901;28;20033;-54
2021/04/29 01:02:29;;;;;;;8.60;4.60;;;;;;;11.59;96.34;94732.94;1032851;28;20030;-56
2021/04/29 01:03:18;;;;;;;7.13;4.00;;;;;;;11.60;96.67;94729.28;1028499;28;20023;-56
2021/04/29 01:03:54;;;;;;;9.50;4.53;;;;;;;11.57;96.50;94732.38;1028026;28;20094;-53
2021/04/29 01:04:39;;;;;;;6.35;4.13;;;;;;;11.53;97.54;94733.88;1028574;28;20424;-55
2021/04/29 01:05:21;;;;;;;8.07;4.10;;;;;;;11.53;96.91;94734.69;1028940;28;20085;-53
2021/04/29 01:05:58;;;;;;;7.40;3.90;;;;;;;11.56;97.08;94734.22;1037215;28;20432;-53
2021/04/29 01:06:39;;;;;;;7.07;4.55;;;;;;;11.51;97.98;94738.59;1036726;28;20411;-53
2021/04/29 01:07:11;;;;;;;7.93;4.18;;;;;;;11.54;96.96;94730.22;1032899;28;20034;-54
2021/04/29 01:07:43;;;;;;;7.38;4.25;;;;;;;11.51;96.98;94728.06;1028925;28;20259;-51
2021/04/29 01:08:41;;;;;;;6.40;4.25;;;;;;;11.54;96.61;94733.66;1026260;28;20023;-52
2021/04/29 01:09:27;;;;;;;6.05;3.58;;;;;;;11.53;97.52;94736.53;1024262;29;20413;-55
2021/04/29 01:10:27;;;;;;;8.30;4.00;;;;;;;11.51;97.18;94734.13;1034477;28;20053;-57
2021/04/29 01:11:06;;;;;;;;;;;;;;;11.49;97.61;94738.00;1036066;28;20046;-54
2021/04/29 01:11:36;;;;;;;6.15;3.80;;;;;;;11.46;97.12;94735.84;1033889;28;20352;-52
2021/04/29 01:12:28;;;;;;;5.83;3.70;;;;;;;11.47;97.68;94735.63;1036740;28;20103;-54
2021/04/29 01:13:11;;;;;;;5.38;3.60;;;;;;;11.45;97.90;94734.25;1032575;28;20059;-54
2021/04/29 01:13:44;;;;;;;8.82;4.13;;;;;;;11.43;97.53;94737.09;1032727;28;20014;-56
2021/04/29 01:14:15;;;;;;;10.05;4.20;;;;;;;11.41;97.91;94733.91;1029422;28;20101;-55
2021/04/29 01:14:46;;;;;;;8.80;3.97;;;;;;;11.40;97.52;94732.31;1031112;28;20037;-54
2021/04/29 01:15:17;;;;;;;7.72;3.88;;;;;;;11.39;98.32;94738.63;1029901;28;20053;-53
2021/04/29 01:15:47;;;;;;;7.13;3.90;;;;;;;11.36;98.56;94729.34;1032799;28;20053;-53
2021/04/29 01:16:18;;;;;;;5.33;3.70;;;;;;;11.34;98.64;94728.78;1032869;28;20481;-52
2021/04/29 01:16:48;;;;;;;6.40;3.63;;;;;;;11.37;98.47;94730.13;1028731;28;20482;-52
2021/04/29 01:17:19;;;;;;;6.83;3.90;;;;;;;11.36;98.10;94732.00;1033185;28;20014;-53
2021/04/29 01:17:49;;;;;;;7.30;4.10;;;;;;;11.33;98.40;94734.31;1024817;28;20031;-56
2021/04/29 01:18:22;;;;;;;7.07;4.07;;;;;;;11.31;98.90;94737.16;1024675;28;20027;-56
2021/04/29 01:18:53;;;;;;;6.30;4.18;;;;;;;11.31;99.00;94737.16;1029036;28;20412;-55
2021/04/29 01:19:30;;;;;;;7.50;3.92;;;;;;;11.30;98.79;94734.78;1021440;28;20494;-55
2021/04/29 01:20:08;;;;;;;7.22;4.00;;;;;;;11.30;99.35;94740.81;1029927;28;20027;-53
2021/04/29 01:20:52;;;;;;;6.13;4.22;;;;;;;11.27;99.19;94733.38;1035293;28;20045;-51
2021/04/29 01:21:25;;;;;;;6.28;3.88;;;;;;;11.23;99.43;94740.16;1040649;28;20081;-54
2021/04/29 01:21:55;;;;;;;6.30;4.05;;;;;;;11.16;100.00;94732.38;1036489;28;20034;-52
2021/04/29 01:22:25;;;;;;;9.87;3.70;;;;;;;11.14;99.76;94728.38;1032406;28;20095;-55
2021/04/29 01:23:32;;;;;;;7.80;4.20;;;;;;;11.13;100.00;94734.66;1032546;28;20018;-53
2021/04/29 01:24:04;;;;;;;6.88;4.00;;;;;;;11.11;100.00;94739.38;1037199;28;20097;-55
2021/04/29 01:24:40;;;;;;;7.13;3.97;;;;;;;11.09;100.00;94747.50;1037156;28;20097;-53
2021/04/29 01:25:12;;;;;;;6.28;3.90;;;;;;;11.12;100.00;94735.72;1032415;28;20472;-54
2021/04/29 01:25:43;;;;;;;8.20;4.20;;;;;;;11.11;100.00;94734.91;1028426;28;20023;-56
2021/04/29 01:26:37;;;;;;;5.67;3.73;;;;;;;11.05;100.00;94740.31;1021532;29;20090;-56
2021/04/29 01:27:07;;;;;;;5.32;3.90;;;;;;;11.07;100.00;94732.97;1031947;28;20101;-56
2021/04/29 01:27:38;;;;;;;6.27;4.13;;;;;;;11.11;100.00;94731.47;1035733;28;20022;-52
2021/04/29 01:28:09;;;;;;;10.43;4.17;;;;;;;11.15;100.00;94743.16;1038716;28;20033;-56
2021/04/29 01:28:39;;;;;;;8.70;4.20;;;;;;;11.15;100.00;94736.03;1040596;28;20064;-52
2021/04/29 01:29:11;;;;;;;6.67;3.97;;;;;;;11.17;100.00;94738.44;1036501;28;20121;-57
2021/04/29 01:29:42;;;;;;;7.07;4.10;;;;;;;11.15;100.00;94735.25;1028418;28;20030;-52
2021/04/29 01:30:13;;;;;;;5.10;3.72;;;;;;;11.12;100.00;94738.34;1020589;29;20125;-54
2021/04/29 01:30:43;;;;;;;7.90;4.00;;;;;;;11.10;99.94;94732.50;1028400;28;20193;-52
2021/04/29 01:31:14;;;;;;;6.23;3.77;;;;;;;11.10;100.00;94735.13;1028396;28;20030;-57
2021/04/29 01:31:45;;;;;;;8.50;3.90;;;;;;;11.13;100.00;94732.03;1032563;28;20018;-52
2021/04/29 01:32:15;;;;;;;8.53;4.30;;;;;;;11.14;100.00;94731.81;1028338;28;20031;-54
2021/04/29 01:32:46;;;;;;;6.20;3.97;;;;;;;11.16;100.00;94731.59;1028477;28;20509;-55
2021/04/29 01:33:16;;;;;;;6.13;3.80;;;;;;;11.14;100.00;94729.16;1024300;29;20450;-56
2021/04/29 01:33:46;;;;;;;6.93;3.80;;;;;;;11.10;100.00;94729.88;1028304;28;20037;-53
2021/04/29 01:34:18;;;;;;;4.80;3.43;;;;;;;11.03;100.00;94722.91;1032087;28;20063;-56
2021/04/29 01:34:49;;;;;;;6.95;4.25;;;;;;;11.08;100.00;94731.94;1032570;28;20045;-57
2021/04/29 01:35:19;;;;;;;7.67;4.13;;;;;;;11.10;100.00;94729.88;1036576;28;20053;-54
2021/04/29 01:35:50;;;;;;;5.27;3.63;;;;;;;11.12;100.00;94727.81;1032624;28;20022;-56
2021/04/29 01:36:20;;;;;;;6.00;3.67;;;;;;;11.13;100.00;94729.41;1032073;28;20069;-53
2021/04/29 01:36:51;;;;;;;5.50;3.73;;;;;;;11.13;100.00;94729.41;1024422;29;20011;-53
2021/04/29 01:37:22;;;;;;;10.23;4.20;;;;;;;11.13;100.00;94722.31;1024379;29;20023;-56
2021/04/29 01:37:52;;;;;;;5.80;3.43;;;;;;;11.15;100.00;94724.72;1032268;28;20121;-55
2021/04/29 01:38:23;;;;;;;6.50;4.10;;;;;;;11.13;100.00;94721.50;1032396;28;20018;-54
2021/04/29 01:38:53;;;;;;;6.17;3.90;;;;;;;11.15;100.00;94732.63;1028281;28;20015;-55
2021/04/29 01:39:24;;;;;;;5.93;3.90;;;;;;;11.14;100.00;94725.75;1028432;28;20015;-53
2021/04/29 01:39:54;;;;;;;6.27;3.60;;;;;;;11.13;100.00;94726.75;1036311;28;20049;-55
2021/04/29 01:40:25;;;;;;;6.17;3.90;;;;;;;11.14;100.00;94723.91;1036500;28;20018;-51
2021/04/29 01:40:55;;;;;;;6.77;3.60;;;;;;;11.11;100.00;94726.22;1044580;28;20147;-52
2021/04/29 01:41:26;;;;;;;5.70;3.60;;;;;;;11.12;100.00;94730.44;1036338;28;20350;-53
2021/04/29 01:41:56;;;;;;;7.33;4.03;;;;;;;11.14;100.00;94728.38;1036392;28;20490;-56
2021/04/29 01:42:26;;;;;;;5.40;3.37;;;;;;;11.16;100.00;94728.97;1036330;28;20473;-54
2021/04/29 01:42:58;;;;;;;6.43;3.70;;;;;;;11.16;100.00;94732.38;1036474;28;20041;-53
2021/04/29 01:43:29;;;;;;;6.65;3.50;;;;;;;11.14;100.00;94729.16;1040453;28;20053;-53
2021/04/29 01:43:59;;;;;;;6.33;3.73;;;;;;;11.14;100.00;94733.66;1036375;28;20021;-54
2021/04/29 01:44:30;;;;;;;7.63;3.30;;;;;;;11.15;100.00;94736.03;1032449;28;20025;-55
2021/04/29 01:45:01;;;;;;;6.10;3.70;;;;;;;11.15;100.00;94730.78;1032269;28;20026;-55
2021/04/29 01:45:32;;;;;;;6.63;3.95;;;;;;;11.15;100.00;94737.88;1028581;28;20014;-55
2021/04/29 01:46:02;;;;;;;4.93;3.47;;;;;;;11.15;100.00;94738.69;1028434;28;20038;-55
2021/04/29 01:46:33;;;;;;;6.87;3.67;;;;;;;11.14;100.00;94736.28;1024492;28;20019;-56
2021/04/29 01:47:04;;;;;;;5.90;3.80;;;;;;;11.11;100.00;94734.09;1024522;28;20023;-55
2021/04/29 01:47:34;;;;;;;6.73;3.93;;;;;;;11.13;100.00;94734.66;1028501;28;20106;-53
2021/04/29 01:48:05;;;;;;;7.47;3.50;;;;;;;11.14;100.00;94733.66;1032343;28;20034;-52
2021/04/29 01:48:35;;;;;;;5.53;3.33;;;;;;;11.02;100.00;94739.75;1028785;28;20019;-53
2021/04/29 01:49:07;;;;;;;7.47;3.63;;;;;;;11.03;100.00;94740.53;1036345;28;20022;-53
2021/04/29 01:49:37;;;;;;;7.53;3.50;;;;;;;11.05;100.00;94730.56;1036501;28;20365;-52
2021/04/29 01:50:09;;;;;;;6.47;3.60;;;;;;;11.08;100.00;94735.38;1032545;28;20030;-52
2021/04/29 01:50:40;;;;;;;6.45;3.60;;;;;;;11.07;100.00;94738.22;1036336;28;20049;-54
2021/04/29 01:51:10;;;;;;;8.60;3.57;;;;;;;11.06;100.00;94739.28;1036252;28;20046;-53
2021/04/29 01:51:41;;;;;;;6.07;3.90;;;;;;;11.03;100.00;94736.06;1032781;28;20022;-54
2021/04/29 01:52:11;;;;;;;5.87;3.37;;;;;;;11.06;100.00;94739.28;1032262;28;20021;-54
2021/04/29 01:52:42;;;;;;;6.57;3.90;;;;;;;11.08;100.00;94740.63;1032260;28;20030;-54
2021/04/29 01:53:12;;;;;;;4.60;3.30;;;;;;;11.06;100.00;94737.44;1032475;28;20022;-53
2021/04/29 01:53:43;;;;;;;5.23;3.77;;;;;;;11.09;100.00;94736.19;1028312;28;20389;-53
2021/04/29 01:54:14;;;;;;;6.17;3.63;;;;;;;11.17;100.00;94743.72;1028166;28;20027;-51
2021/04/29 01:54:44;;;;;;;6.40;3.73;;;;;;;11.18;99.79;94740.06;1028251;28;20453;-53
2021/04/29 01:55:15;;;;;;;5.37;3.10;;;;;;;11.18;100.00;94735.59;1028327;28;20262;-56
2021/04/29 01:55:45;;;;;;;6.77;3.53;;;;;;;11.20;99.82;94737.97;1028490;28;20018;-54
2021/04/29 01:56:16;;;;;;;4.37;3.20;;;;;;;11.17;99.77;94730.53;1032290;28;20045;-55
2021/04/29 01:56:46;;;;;;;5.17;3.40;;;;;;;11.13;100.00;94734.66;1028505;28;20026;-55
2021/04/29 01:57:18;;;;;;;6.80;3.00;;;;;;;11.10;100.00;94738.59;1032449;28;20049;-55
2021/04/29 01:57:48;;;;;;;5.25;3.30;;;;;;;11.14;100.00;94733.66;1036356;28;20022;-55
2021/04/29 01:58:20;;;;;;;5.40;3.23;;;;;;;11.14;100.00;94736.28;1024451;28;20031;-51
2021/04/29 01:58:53;;;;;;;5.40;3.08;;;;;;;11.13;100.00;94732.03;1029114;28;20026;-56
2021/04/29 01:59:24;;;;;;;5.93;3.33;;;;;;;11.15;100.00;94730.00;1032335;28;20515;-54
2021/04/29 01:59:55;;;;;;;5.17;3.27;;;;;;;11.14;100.00;94741.53;1033504;28;20063;-56
2021/04/29 02:00:25;;;;;;;7.97;3.00;;;;;;;11.14;100.00;94738.91;1040350;28;20064;-57
2021/04/29 02:00:55;;;;;;;6.10;2.93;;;;;;;11.18;100.00;94737.44;1036378;28;20025;-53
2021/04/29 02:01:26;;;;;;;5.73;3.60;;;;;;;11.18;100.00;94740.84;1036339;28;20025;-55
2021/04/29 02:01:57;;;;;;;5.27;3.10;;;;;;;11.22;100.00;94741.19;1040476;28;20076;-56
2021/04/29 02:02:27;;;;;;;6.47;3.27;;;;;;;11.20;100.00;94743.25;1040402;28;20097;-53
2021/04/29 02:03:01;;;;;;;4.80;3.03;;;;;;;11.25;99.99;94735.47;1040764;28;20021;-53
2021/04/29 02:03:31;;;;;;;4.93;3.00;;;;;;;11.21;99.69;94736.97;1036036;28;20025;-54
2021/04/29 02:04:02;;;;;;;5.27;3.20;;;;;;;11.26;100.00;94741.53;1032297;28;20443;-54
2021/04/29 02:04:33;;;;;;;5.45;3.22;;;;;;;11.25;100.00;94739.91;1032027;28;20121;-53
2021/04/29 02:05:04;;;;;;;4.47;2.87;;;;;;;11.25;100.00;94738.09;1032678;28;20453;-53
2021/04/29 02:05:34;;;;;;;4.90;3.40;;;;;;;11.17;99.90;94736.63;1040357;28;20392;-54
2021/04/29 02:06:04;;;;;;;5.93;3.33;;;;;;;11.15;100.00;94743.94;1040764;28;20045;-52
2021/04/29 02:06:39;;;;;;;8.23;3.13;;;;;;;11.10;100.00;94743.03;1040609;28;20021;-55
2021/04/29 02:07:09;;;;;;;6.18;3.05;;;;;;;11.10;100.00;94738.59;1040753;28;20483;-56
2021/04/29 02:07:40;;;;;;;4.47;2.90;;;;;;;11.12;100.00;94735.72;1040591;28;20032;-54
2021/04/29 02:08:10;;;;;;;5.23;3.20;;;;;;;11.09;100.00;94747.50;1040591;28;20013;-56
2021/04/29 02:08:41;;;;;;;5.60;3.13;;;;;;;11.07;100.00;94746.13;1040754;28;20021;-53
2021/04/29 02:09:11;;;;;;;4.87;2.73;;;;;;;11.06;100.00;94741.91;1040629;28;20030;-55
2021/04/29 02:09:42;;;;;;;4.43;2.83;;;;;;;11.05;100.00;94745.56;1040661;28;20091;-55
2021/04/29 02:10:13;;;;;;;4.20;2.97;;;;;;;11.03;100.00;94743.16;1040792;28;20397;-55
2021/04/29 02:10:43;;;;;;;4.82;3.00;;;;;;;11.04;100.00;94744.78;1032073;28;20023;-55
2021/04/29 02:11:14;;;;;;;7.40;2.97;;;;;;;11.02;100.00;94744.19;1028233;28;20477;-54
2021/04/29 02:11:49;;;;;;;5.73;3.07;;;;;;;10.99;100.00;94748.13;1028238;28;20037;-56
2021/04/29 02:12:19;;;;;;;7.05;3.00;;;;;;;10.99;100.00;94748.13;1028253;28;20456;-54
2021/04/29 02:12:55;;;;;;;4.70;2.80;;;;;;;11.01;100.00;94750.50;1028927;28;20130;-57
2021/04/29 02:13:27;;;;;;;6.88;2.72;;;;;;;11.01;100.00;94748.66;1029597;28;20370;-53
2021/04/29 02:13:57;;;;;;;4.68;2.67;;;;;;;10.98;100.00;94746.50;1032164;28;20433;-56
2021/04/29 02:14:47;;;;;;;4.77;2.80;;;;;;;10.95;100.00;94744.34;1033888;28;20030;-53
2021/04/29 02:15:17;;;;;;;4.65;2.75;;;;;;;10.99;100.00;94744.66;1036283;28;20024;-55
2021/04/29 02:15:55;;;;;;;5.73;2.47;;;;;;;11.00;100.00;94748.91;1036159;28;20040;-52
2021/04/29 02:16:46;;;;;;;3.90;2.63;;;;;;;10.95;100.00;94746.19;1036020;28;20014;-56
2021/04/29 02:17:18;;;;;;;;;;;;;;;10.92;100.00;94742.16;1036472;28;20407;-56
2021/04/29 02:17:53;;;;;;;4.72;2.40;;;;;;;10.95;100.00;94746.19;1036275;28;19906;-55
2021/04/29 02:18:23;;;;;;;6.22;2.50;;;;;;;10.94;100.00;94741.94;1031636;28;20117;-54
2021/04/29 02:18:53;;;;;;;5.37;2.60;;;;;;;10.90;100.00;94738.16;1028965;28;20019;-53
2021/04/29 02:19:25;;;;;;;5.43;2.60;;;;;;;10.92;100.00;94744.00;1032214;28;20011;-53
2021/04/29 02:19:55;;;;;;;7.07;2.92;;;;;;;10.91;100.00;94748.44;1028439;28;20054;-56
2021/04/29 02:20:26;;;;;;;6.17;2.60;;;;;;;10.94;100.00;94745.34;1027982;28;20054;-56
2021/04/29 02:20:57;;;;;;;3.80;2.50;;;;;;;10.97;100.00;94744.09;1028792;28;20066;-52
2021/04/29 02:21:27;;;;;;;6.83;2.83;;;;;;;10.97;100.00;94744.09;1032350;28;20021;-53
2021/04/29 02:21:58;;;;;;;5.70;2.57;;;;;;;10.93;100.00;94741.13;1032426;28;20376;-52
2021/04/29 02:22:28;;;;;;;6.07;3.00;;;;;;;10.93;100.00;94748.22;1036296;28;20024;-53
2021/04/29 02:22:59;;;;;;;4.63;2.20;;;;;;;10.94;100.00;94753.25;1036291;28;20022;-56
2021/04/29 02:23:29;;;;;;;4.67;2.53;;;;;;;10.97;100.00;94749.38;1028389;28;20568;-52
2021/04/29 02:24:00;;;;;;;4.00;2.33;;;;;;;10.99;100.00;94755.19;1032293;28;20069;-51
2021/04/29 02:24:32;;;;;;;5.17;2.50;;;;;;;10.98;100.00;94743.06;1027875;28;20044;-51
2021/04/29 02:25:03;;;;;;;4.00;2.08;;;;;;;10.96;100.00;94751.22;1028101;28;20018;-51
2021/04/29 02:25:34;;;;;;;3.90;2.27;;;;;;;10.94;100.00;94752.47;1029047;28;20018;-52
2021/04/29 02:26:05;;;;;;;5.20;2.50;;;;;;;10.92;100.00;94747.44;1028303;28;20349;-53
2021/04/29 02:26:35;;;;;;;5.63;2.40;;;;;;;10.92;100.00;94752.69;1032614;28;20441;-52
2021/04/29 02:27:08;;;;;;;4.67;2.70;;;;;;;10.90;100.00;94749.50;1036218;28;20025;-55
2021/04/29 02:27:38;;;;;;;4.40;2.15;;;;;;;10.89;100.00;94750.53;1036644;28;20033;-53
2021/04/29 02:28:09;;;;;;;4.33;2.43;;;;;;;10.87;100.00;94747.31;1032179;28;20057;-53
2021/04/29 02:28:40;;;;;;;7.67;2.53;;;;;;;10.88;100.00;94748.13;1035993;28;20025;-53
2021/04/29 02:29:10;;;;;;;4.80;2.47;;;;;;;10.85;100.00;94746.75;1036210;28;20026;-53